x

Long Key, Fl (lonf1) Weather Station

4:00am - Sat 30th Jul 2016 All times are CDT. -4 hours from GMT.

  • Wind
    6mph, 7mph gusts
  • Sea Temp 88°f
  • Air Temp 84°f
  • Sea Pressure 1016.7mb
  • Long Key, Fl
  • Long Key, Fl

More Historic Weather Station data

Upgrade to MSW Pro to gain access to the past 30 days of data for over 8000 Wavebouys and Weather Stations around the globe.

Join Pro

Comparision Forecast

View Surf forecast
   
Sat 07/30 4:00am 6 7 mph 1016.7mb 88f 84f
3:00am 5 6 mph 1016.8mb 89f 84f
2:00am 6 7 mph 1017.4mb 89f 84f
1:00am 1 2 mph 1017.6mb 89f 84f
12:00am 6 7 mph 1017.7mb 89f 85f
Fri 07/29 11:00pm 6 8 mph 1017.9mb 89f 85f
10:00pm 5 7 mph 1017.5mb 89f 85f
9:00pm 6 8 mph 1017.2mb 89f 86f
8:00pm 5 6 mph 1017mb 89f 86f
7:00pm 2 3 mph 1017mb 89f 85f
6:00pm 5 6 mph 1016.5mb 89f 86f
5:00pm 8 9 mph 1016.9mb 89f 86f
4:00pm 7 8 mph 1017.1mb 89f 87f
3:00pm 7 9 mph 1017.6mb 88f 87f
2:00pm 8 9 mph 1017.9mb 88f 86f
1:00pm 7 9 mph 1018.5mb 87f 86f
12:00pm  -  1 mph 1019mb 87f 85f
11:00am 1 2 mph 1018.9mb 87f 86f
10:00am  -  1 mph 1018.7mb 86f 85f
9:00am 1 2 mph 1018.4mb 86f 85f
8:00am 1 2 mph 1017.7mb 86f 85f
7:00am 5 6 mph 1017.3mb 86f 84f
6:00am 6 7 mph 1017.3mb 87f 84f
5:00am 3 5 mph 1017.2mb 87f 84f
4:00am 8
mph
1017.1mb 87f 84f
3:00am 7 8 mph 1017mb 87f 84f
2:00am 10 11 mph 1016.9mb 87f 85f
1:00am 13 14 mph 1017.1mb 87f 85f
12:00am 11 13 mph 1017.8mb 87f 84f
Thu 07/28 11:00pm 11 14 mph 1017.7mb 87f 85f
10:00pm 11 14 mph 1017.6mb 87f 85f
9:00pm 13 15 mph 1017mb 88f 85f
8:00pm 11 13 mph 1016.6mb 88f 85f
7:00pm 10 13 mph 1016.3mb 88f 86f
6:00pm 13 15 mph 1016.5mb 88f 85f
5:00pm 14 15 mph 1016.3mb 88f 85f
4:00pm 9 11 mph 1016.6mb 88f 85f
3:00pm 2 8 mph 1017.1mb 87f 84f
2:00pm 8 11 mph 1017.9mb 87f 84f
1:00pm 11 14 mph 1018.3mb 86f 83f
12:00pm 17 18 mph 1018.8mb 86f 82f
11:00am 10 11 mph 1018.8mb 86f 82f
10:00am 8 9 mph 1018.9mb 86f 81f
9:00am 14 17 mph 1018.7mb 86f 80f
8:00am 11 13 mph 1017.5mb 86f 82f
7:00am 10 13 mph 1017.1mb 86f 83f
6:00am 14 15 mph 1016.8mb 86f 82f
5:00am 7 8 mph 1017.3mb 86f 77f
4:00am 10
mph
1016.4mb 86f 85f
3:00am 10 11 mph 1016.4mb 86f 85f
2:00am 14 16 mph 1016.8mb 86f 85f
1:00am 16 20 mph 1017.1mb 87f 85f
12:00am 14 15 mph 1017.2mb 87f 86f
Wed 07/27 11:00pm 13 14 mph 1017.3mb 87f 85f
10:00pm 10 11 mph 1017.4mb 87f 85f
9:00pm 14 16 mph 1016.6mb 87f 85f
8:00pm 15 16 mph 1016.8mb 87f 85f
7:00pm 17 20 mph 1016.5mb 88f 85f
6:00pm 16 18 mph 1016.5mb 88f 85f
5:00pm 13 15 mph 1016.3mb 87f 85f
4:00pm 16 18 mph 1016.7mb 87f 85f
3:00pm 16 18 mph 1017.4mb 87f 85f
2:00pm 15 18 mph 1018.1mb 87f 85f
1:00pm 6 9 mph 1018.5mb 86f 84f
12:00pm 2 5 mph 1018.8mb 86f 83f
11:00am 8 11 mph 1018.6mb 86f 81f
10:00am 15 17 mph 1018.5mb 86f 80f
9:00am 10 13 mph 1018.9mb 86f 78f
8:00am 13 15 mph 1018.8mb 86f 76f
7:00am 14 16 mph 1018mb 86f 83f
6:00am 17 20 mph 1016.8mb 87f 82f
5:00am 16 20 mph 1016.8mb 87f 82f
4:00am 13 15 mph 1016.6mb 87f 83f
3:00am 11 14 mph 1016.8mb 87f 84f
2:00am 13 14 mph 1017.3mb 87f 84f
1:00am 13 14 mph 1017.6mb 87f 84f
12:00am 16 18 mph 1017.8mb 88f 84f
Tue 07/26 11:00pm 17 20 mph 1018.1mb 88f 84f
10:00pm 18 20 mph 1017.7mb 88f 84f
9:00pm 16 17 mph 1017.2mb 88f 85f
8:00pm 9 14 mph 1017.2mb 89f 85f
7:00pm 16 20 mph 1016.7mb 89f 85f
6:00pm 16 17 mph 1016.5mb 89f 85f
5:00pm 14 15 mph 1016.6mb 89f 85f
4:00pm 16 18 mph 1017.2mb 88f 85f
3:00pm 15 16 mph 1017.5mb 88f 85f
2:00pm 14 18 mph 1018mb 88f 85f
1:00pm 17 20 mph 1018.4mb 87f 85f
12:00pm 15 18 mph 1018.8mb 87f 85f
11:00am 13 15 mph 1018.7mb 87f 85f
10:00am 11 15 mph 1018.4mb 86f 85f